Time;durP1;ratioP1;P1;durP2;ratioP2;P2;SDS_P1;SDS_P2;PMS_P1;PMS_P2;Temp;Humidity;BMP_temperature;BMP_pressure;BME280_temperature;BME280_humidity;BME280_pressure;Samples;Min_cycle;Max_cycle;Signal;HPM_P1;HPM_P2
2023/01/29 00:01:59;;;;;;;14.78;7.75;;;;;;;-1.40;82.84;101161.03;1660432;86;25630;-46
2023/01/29 00:04:26;;;;;;;16.05;7.60;;;;;;;-1.40;82.96;101161.03;1663646;86;27347;-47
2023/01/29 00:06:54;;;;;;;13.72;6.58;;;;;;;-1.42;82.74;101158.30;1660209;86;25416;-49
2023/01/29 00:09:20;;;;;;;12.13;6.58;;;;;;;-1.45;82.58;101162.17;1660252;86;25429;-45
2023/01/29 00:11:46;;;;;;;14.30;7.00;;;;;;;-1.42;82.70;101166.27;1640466;86;25709;-45
2023/01/29 00:14:15;;;;;;;12.93;6.83;;;;;;;-1.44;82.55;101157.70;1660320;86;25417;-48
2023/01/29 00:16:41;;;;;;;11.38;6.87;;;;;;;-1.45;82.55;101156.05;1660216;86;27478;-47
2023/01/29 00:19:07;;;;;;;12.50;6.75;;;;;;;-1.44;82.49;101143.10;1660160;86;25407;-47
2023/01/29 00:21:33;;;;;;;10.40;5.97;;;;;;;-1.45;82.37;101145.44;1660197;86;25610;-46
2023/01/29 00:24:00;;;;;;;16.10;6.53;;;;;;;-1.44;82.45;101143.91;1660168;86;25583;-47
2023/01/29 00:26:28;;;;;;;17.25;8.20;;;;;;;-1.48;81.96;101130.77;1660270;86;25495;-47
2023/01/29 00:28:56;;;;;;;13.38;7.55;;;;;;;-1.49;81.99;101136.28;1660258;86;27535;-49
2023/01/29 00:31:26;;;;;;;18.73;7.65;;;;;;;-1.49;82.36;101134.95;1660377;86;26024;-47
2023/01/29 00:33:54;;;;;;;11.45;7.30;;;;;;;-1.49;82.36;101134.95;1660333;86;25534;-48
2023/01/29 00:36:22;;;;;;;13.83;8.05;;;;;;;-1.51;82.30;101128.00;1660210;86;25652;-46
2023/01/29 00:38:57;;;;;;;13.27;7.53;;;;;;;-1.49;82.44;101121.68;1660478;86;25602;-45
2023/01/29 00:47:02;;;;;;;12.40;7.85;;;;;;;-1.51;82.43;101131.17;1660309;86;25583;-44
2023/01/29 00:49:29;;;;;;;16.00;8.45;;;;;;;-1.53;82.48;101125.27;1660590;84;25593;-44
2023/01/29 00:54:42;;;;;;;12.85;7.78;;;;;;;-1.52;82.69;101122.90;1665596;86;27435;-47
2023/01/29 00:57:08;;;;;;;13.95;7.72;;;;;;;-1.52;82.76;101122.90;1665367;85;25707;-49
2023/01/29 00:59:34;;;;;;;12.50;7.62;;;;;;;-1.52;82.52;101117.59;1665473;85;25405;-47
2023/01/29 01:04:45;;;;;;;14.78;8.25;;;;;;;-1.53;82.73;101117.31;1665610;86;25445;-49
2023/01/29 01:07:13;;;;;;;10.98;7.30;;;;;;;-1.53;82.95;101110.16;1665531;85;27473;-49
2023/01/29 01:12:27;;;;;;;14.38;8.55;;;;;;;-1.51;82.80;101088.72;1665525;86;25433;-47
2023/01/29 01:14:56;;;;;;;18.77;8.30;;;;;;;-1.51;82.70;101099.33;1665647;86;25639;-49
2023/01/29 01:17:24;;;;;;;15.32;8.90;;;;;;;-1.53;82.49;101094.23;1665478;86;25624;-47
2023/01/29 01:19:50;;;;;;;15.58;8.18;;;;;;;-1.55;82.61;101084.34;1665497;86;27474;-46
2023/01/29 01:22:19;;;;;;;14.60;8.58;;;;;;;-1.55;82.58;101072.89;1665523;86;25598;-46
2023/01/29 01:24:45;;;;;;;16.85;10.35;;;;;;;-1.55;82.43;101086.16;1665637;86;25400;-46
2023/01/29 01:27:13;;;;;;;16.05;8.03;;;;;;;-1.58;82.52;101070.69;1666784;86;25751;-47
2023/01/29 01:29:40;;;;;;;15.15;8.30;;;;;;;-1.56;81.88;101077.92;1665636;86;25416;-46
2023/01/29 01:32:06;;;;;;;12.33;7.28;;;;;;;-1.59;82.30;101077.80;1665480;86;27441;-47
2023/01/29 01:34:32;;;;;;;12.30;6.58;;;;;;;-1.58;82.35;101071.48;1665442;86;25796;-47
2023/01/29 01:36:59;;;;;;;13.18;7.00;;;;;;;-1.58;82.40;101068.03;1665528;85;25472;-46
2023/01/29 01:39:25;;;;;;;13.25;7.28;;;;;;;-1.58;81.99;101072.81;1665426;86;25672;-46
2023/01/29 01:41:54;;;;;;;12.78;6.97;;;;;;;-1.60;82.09;101068.23;1665492;85;25614;-47
2023/01/29 01:44:54;;;;;;;10.03;5.97;;;;;;;-1.59;82.39;101072.50;1665449;85;27498;-47
2023/01/29 01:47:35;;;;;;;12.00;6.67;;;;;;;-1.58;82.21;101074.66;1665492;86;25580;-46
2023/01/29 01:50:16;;;;;;;12.05;6.55;;;;;;;-1.60;82.11;101072.70;1664689;85;25642;-46
2023/01/29 01:52:48;;;;;;;9.78;5.60;;;;;;;-1.59;82.15;101070.37;1660158;86;27711;-47
2023/01/29 01:55:20;;;;;;;10.98;5.97;;;;;;;-1.59;82.15;101071.17;1660215;86;25665;-47
2023/01/29 01:57:51;;;;;;;11.65;5.78;;;;;;;-1.59;82.12;101073.02;1660225;86;27594;-50
2023/01/29 02:00:23;;;;;;;11.48;6.08;;;;;;;-1.59;82.12;101079.13;1660120;86;25403;-47
2023/01/29 02:11:25;;;;;;;11.05;5.75;;;;;;;-1.65;81.90;101080.48;1640481;86;32837;-47
2023/01/29 02:13:53;;;;;;;9.93;4.87;;;;;;;-1.65;82.14;101083.12;1660074;86;25584;-46
2023/01/29 02:16:23;;;;;;;12.18;5.33;;;;;;;-1.66;81.76;101085.50;1660165;86;25648;-46
2023/01/29 02:18:52;;;;;;;9.78;5.33;;;;;;;-1.69;81.96;101080.08;1660162;86;25609;-46
2023/01/29 02:21:36;;;;;;;9.23;6.40;;;;;;;-1.69;81.90;101069.47;1660337;86;26640;-46
2023/01/29 02:24:11;;;;;;;10.00;5.58;;;;;;;-1.71;81.77;101067.55;1660339;86;27621;-46
2023/01/29 02:27:03;;;;;;;7.15;4.87;;;;;;;-1.72;81.68;101065.91;1660125;86;25787;-49
2023/01/29 02:30:02;;;;;;;12.05;5.55;;;;;;;-1.73;81.83;101069.59;1657950;86;25619;-47
2023/01/29 02:32:57;;;;;;;8.38;4.90;;;;;;;-1.73;81.81;101076.23;1660411;86;25587;-46
2023/01/29 02:35:41;;;;;;;8.45;4.62;;;;;;;-1.74;81.88;101067.47;1659844;86;25559;-47
2023/01/29 02:38:23;;;;;;;10.88;5.17;;;;;;;-1.75;81.96;101065.02;1660300;86;27516;-47
2023/01/29 02:41:05;;;;;;;7.75;5.20;;;;;;;-1.75;81.71;101061.04;1660329;86;25624;-47
2023/01/29 02:43:47;;;;;;;7.65;5.37;;;;;;;-1.77;81.60;101054.61;1660337;86;25616;-48
2023/01/29 02:46:33;;;;;;;11.12;5.15;;;;;;;-1.78;81.59;101052.97;1660352;86;25574;-48
2023/01/29 02:49:08;;;;;;;8.50;5.10;;;;;;;-1.80;81.56;101055.02;1660474;86;25577;-46
2023/01/29 02:52:16;;;;;;;10.65;5.45;;;;;;;-1.80;81.73;101049.72;1664085;86;27511;-49
2023/01/29 02:55:01;;;;;;;8.78;5.80;;;;;;;-1.81;81.72;101054.70;1666462;86;27384;-47
2023/01/29 02:57:39;;;;;;;9.05;5.22;;;;;;;-1.83;81.67;101051.45;1666066;85;25395;-47
2023/01/29 03:00:25;;;;;;;8.95;5.72;;;;;;;-1.82;81.72;101050.94;1666516;86;25658;-47
2023/01/29 03:03:00;;;;;;;12.15;5.78;;;;;;;-1.84;81.31;101049.00;1666750;85;25553;-47
2023/01/29 03:05:31;;;;;;;13.18;6.53;;;;;;;-1.86;81.41;101049.73;1666608;86;27481;-47
2023/01/29 03:08:03;;;;;;;14.33;7.03;;;;;;;-1.87;81.63;101039.64;1666546;86;25404;-47
2023/01/29 03:10:56;;;;;;;12.60;6.10;;;;;;;-1.86;81.75;101042.58;1666290;85;25619;-46
2023/01/29 03:13:31;;;;;;;15.23;7.37;;;;;;;-1.86;81.63;101037.28;1665538;85;25572;-50
2023/01/29 03:16:05;;;;;;;13.80;7.25;;;;;;;-1.87;81.63;101038.31;1665794;85;25564;-47
2023/01/29 03:18:42;;;;;;;11.97;6.90;;;;;;;-1.89;81.58;101039.02;1666705;86;27619;-48
2023/01/29 03:32:23;;;;;;;12.60;6.95;;;;;;;-1.93;81.65;101021.38;1666666;86;27569;-47
2023/01/29 03:34:56;;;;;;;15.32;7.22;;;;;;;-1.92;81.71;101023.55;1666500;86;25558;-47
2023/01/29 03:37:32;;;;;;;13.60;8.38;;;;;;;-1.91;81.99;101027.80;1666568;85;25423;-48
2023/01/29 03:40:08;;;;;;;14.10;7.72;;;;;;;-1.91;81.80;101023.34;1662693;86;25891;-47
2023/01/29 03:43:14;;;;;;;15.90;8.30;;;;;;;-1.92;81.98;101024.34;1666629;85;25490;-47
2023/01/29 03:46:19;;;;;;;15.30;8.15;;;;;;;-1.90;82.15;101029.45;1666659;86;27741;-48
2023/01/29 03:49:08;;;;;;;14.53;7.72;;;;;;;-1.90;82.12;101018.31;1627529;88;25739;-49
2023/01/29 03:51:42;;;;;;;13.28;7.85;;;;;;;-1.90;82.07;101029.45;1614249;87;25645;-51
2023/01/29 03:54:37;;;;;;;13.30;8.33;;;;;;;-1.89;82.21;101027.08;1601323;89;25778;-48
2023/01/29 03:57:17;;;;;;;16.40;8.45;;;;;;;-1.89;82.15;101021.28;1602497;89;25653;-48
2023/01/29 03:59:57;;;;;;;16.40;9.63;;;;;;;-1.89;82.07;101025.75;1602347;89;27633;-47
2023/01/29 04:02:29;;;;;;;15.95;9.68;;;;;;;-1.89;82.33;101019.13;1598869;89;25625;-47
2023/01/29 04:05:04;;;;;;;15.00;9.53;;;;;;;-1.90;82.25;101015.67;1602442;89;25641;-47
2023/01/29 04:07:35;;;;;;;17.75;10.23;;;;;;;-1.90;82.04;101016.19;1602438;89;25970;-48
2023/01/29 04:10:15;;;;;;;17.27;9.60;;;;;;;-1.91;82.36;101014.55;1602465;89;25685;-47
2023/01/29 04:13:01;;;;;;;18.48;10.03;;;;;;;-1.91;82.38;101015.38;1602020;89;27445;-49
2023/01/29 04:15:33;;;;;;;18.45;10.05;;;;;;;-1.90;82.58;101011.69;1602275;89;25626;-47
2023/01/29 04:18:03;;;;;;;12.45;8.00;;;;;;;-1.89;82.58;101008.52;1602363;89;25630;-49
2023/01/29 04:20:29;;;;;;;20.32;12.00;;;;;;;-1.89;82.54;101013.82;1619308;86;25991;-50
2023/01/29 04:22:57;;;;;;;17.07;9.10;;;;;;;-1.89;82.50;101006.70;1653711;86;31527;-47
2023/01/29 04:25:29;;;;;;;16.50;9.28;;;;;;;-1.90;82.62;101005.58;1653510;86;27603;-52
2023/01/29 04:28:21;;;;;;;15.43;8.78;;;;;;;-1.89;82.47;100997.91;1653482;86;26369;-48
2023/01/29 04:31:00;;;;;;;18.30;8.98;;;;;;;-1.90;82.66;100992.32;1653575;86;25493;-48
2023/01/29 04:33:52;;;;;;;16.57;11.20;;;;;;;-1.89;82.66;100996.09;1653645;86;25487;-50
2023/01/29 04:36:35;;;;;;;15.55;9.45;;;;;;;-1.89;82.57;100988.14;1602226;89;25806;-48
2023/01/29 04:39:16;;;;;;;16.50;9.70;;;;;;;-1.90;82.73;100991.80;1567444;91;27500;-52
2023/01/29 04:42:09;;;;;;;19.87;10.43;;;;;;;-1.89;82.64;100988.63;1567463;91;25689;-48
2023/01/29 04:45:02;;;;;;;16.27;9.43;;;;;;;-1.90;82.72;100986.50;1536712;93;25562;-48
2023/01/29 04:48:03;;;;;;;14.78;9.55;;;;;;;-1.89;82.72;100977.53;1567455;91;28175;-49
2023/01/29 04:51:08;;;;;;;10.93;6.58;;;;;;;-1.89;82.85;100972.22;1567730;91;25639;-49
2023/01/29 04:53:58;;;;;;;20.48;10.72;;;;;;;-1.88;82.72;100975.69;1567552;91;27520;-48
2023/01/29 04:56:30;;;;;;;;;;;;;;;-1.90;82.46;100977.73;1538900;93;25664;-48
2023/01/29 04:59:04;;;;;;;14.50;8.65;;;;;;;-1.90;82.55;100971.91;1567676;90;25634;-50
2023/01/29 05:01:34;;;;;;;17.32;8.95;;;;;;;-1.92;82.57;100969.98;1567521;91;27921;-48
2023/01/29 05:04:06;;;;;;;15.32;8.43;;;;;;;-1.93;82.29;100972.84;1567582;91;25729;-49
2023/01/29 05:06:35;;;;;;;15.08;8.28;;;;;;;-1.94;82.36;100971.20;1546351;91;27410;-51
2023/01/29 05:09:05;;;;;;;16.37;7.75;;;;;;;-1.94;82.64;100969.88;1567608;91;29657;-52
2023/01/29 05:11:35;;;;;;;17.67;7.37;;;;;;;-1.92;82.75;100968.66;1567542;91;25595;-49
2023/01/29 05:14:06;;;;;;;15.03;6.95;;;;;;;-1.92;82.68;100970.51;1589535;89;25583;-50
2023/01/29 05:16:43;;;;;;;11.25;6.20;;;;;;;-1.93;82.84;100969.67;1635202;86;25623;-49
2023/01/29 05:19:13;;;;;;;15.78;7.72;;;;;;;-1.91;82.95;100972.95;1653606;86;29783;-48
2023/01/29 05:21:45;;;;;;;13.13;7.00;;;;;;;-1.91;82.68;100971.63;1653439;86;25435;-49
2023/01/29 05:24:20;;;;;;;13.65;7.33;;;;;;;-1.89;82.80;100976.70;1653585;86;25431;-48
2023/01/29 05:29:37;;;;;;;16.65;7.42;;;;;;;-1.85;83.04;100972.62;1653657;86;25398;-52
2023/01/29 05:32:03;;;;;;;13.22;6.83;;;;;;;-1.83;82.60;100967.91;1653358;86;27527;-48
2023/01/29 05:34:30;;;;;;;13.58;7.40;;;;;;;-1.82;82.95;100963.41;1653402;86;25610;-49
2023/01/29 05:36:56;;;;;;;12.37;7.47;;;;;;;-1.81;82.90;100954.45;1653509;86;25650;-49
2023/01/29 05:39:22;;;;;;;14.68;8.18;;;;;;;-1.79;82.90;100951.87;1653451;86;34806;-49
2023/01/29 05:41:48;;;;;;;15.10;7.90;;;;;;;-1.78;82.94;100956.16;1653513;86;25605;-49
2023/01/29 05:44:15;;;;;;;15.10;7.42;;;;;;;-1.76;82.95;100951.97;1653450;86;28069;-48
2023/01/29 05:46:42;;;;;;;14.00;8.03;;;;;;;-1.75;82.84;100948.31;1653395;86;25739;-49
2023/01/29 05:49:10;;;;;;;16.23;8.05;;;;;;;-1.76;82.78;100943.50;1653440;86;25579;-49
2023/01/29 05:51:36;;;;;;;17.30;8.18;;;;;;;-1.76;82.67;100937.38;1654446;85;25477;-49
2023/01/29 05:54:04;;;;;;;15.80;7.60;;;;;;;-1.77;82.48;100938.40;1658558;86;25548;-50
2023/01/29 05:56:31;;;;;;;13.18;7.33;;;;;;;-1.77;82.61;100941.89;1658554;86;27522;-49
2023/01/29 05:58:57;;;;;;;15.00;7.50;;;;;;;-1.76;82.68;100942.69;1658387;86;25396;-48
2023/01/29 06:01:25;;;;;;;13.83;7.55;;;;;;;-1.75;82.84;100939.02;1658447;86;25622;-48
2023/01/29 06:03:51;;;;;;;18.67;8.03;;;;;;;-1.76;82.74;100938.71;1658468;86;25696;-49
2023/01/29 06:06:19;;;;;;;13.32;7.92;;;;;;;-1.75;82.83;100940.35;1658581;86;25571;-51
2023/01/29 06:08:47;;;;;;;15.13;8.13;;;;;;;-1.74;82.67;100941.96;1637540;86;27696;-49
2023/01/29 06:11:20;;;;;;;10.85;6.80;;;;;;;-1.75;82.74;100952.29;1658598;86;25631;-49
2023/01/29 06:13:47;;;;;;;16.15;7.60;;;;;;;-1.74;82.68;100950.75;1658683;86;25525;-49
2023/01/29 06:16:18;;;;;;;15.18;7.50;;;;;;;-1.73;82.52;100956.34;1658662;86;25853;-51
2023/01/29 06:18:44;;;;;;;13.05;7.37;;;;;;;-1.72;82.53;100951.34;1658725;86;25611;-51
2023/01/29 06:21:14;;;;;;;12.07;7.22;;;;;;;-1.72;82.69;100948.70;1658655;86;27581;-49
2023/01/29 06:23:44;;;;;;;23.70;8.33;;;;;;;-1.70;82.46;100951.14;1658617;86;25703;-51
2023/01/29 06:26:14;;;;;;;;;;;;;;;-1.68;82.60;100945.63;1661156;86;25481;-50
2023/01/29 06:28:44;;;;;;;14.68;6.97;;;;;;;-1.67;82.44;100945.39;1658706;86;25630;-50
2023/01/29 06:31:13;;;;;;;15.58;7.78;;;;;;;-1.68;82.14;100950.94;1658830;86;25582;-50
2023/01/29 06:33:39;;;;;;;16.52;7.25;;;;;;;-1.67;82.48;100955.20;1658653;86;27487;-52
2023/01/29 06:36:09;;;;;;;13.95;7.30;;;;;;;-1.67;82.37;100948.05;1658534;86;25479;-52
2023/01/29 06:38:35;;;;;;;18.80;8.68;;;;;;;-1.66;82.08;100951.01;1658688;86;25643;-50
2023/01/29 06:41:13;;;;;;;15.68;8.13;;;;;;;-1.68;81.71;100953.06;1658548;86;27703;-50
2023/01/29 06:43:43;;;;;;;16.60;7.72;;;;;;;-1.66;82.00;100955.52;1656620;86;25487;-52
2023/01/29 06:46:12;;;;;;;21.10;9.33;;;;;;;-1.67;82.08;100947.23;1658663;86;27435;-53
2023/01/29 06:48:38;;;;;;;17.25;7.70;;;;;;;-1.65;82.20;100951.81;1658704;86;25576;-51
2023/01/29 06:51:09;;;;;;;17.07;7.97;;;;;;;-1.65;82.21;100950.00;1658625;86;25420;-49
2023/01/29 06:53:39;;;;;;;12.88;8.80;;;;;;;-1.63;82.29;100952.44;1660155;85;25501;-50
2023/01/29 06:56:07;;;;;;;;;;;;;;;-1.61;82.28;100954.36;1662853;86;25415;-49
2023/01/29 06:58:38;;;;;;;14.10;7.30;;;;;;;-1.60;82.01;100947.52;1660462;86;27505;-50
2023/01/29 07:01:11;;;;;;;15.10;7.28;;;;;;;-1.60;82.03;100955.97;1660334;86;25472;-50
2023/01/29 07:03:42;;;;;;;17.60;8.03;;;;;;;-1.60;82.30;100951.50;1659912;86;25293;-52
2023/01/29 07:06:10;;;;;;;12.47;7.62;;;;;;;-1.58;82.14;100957.41;1660394;86;26286;-51
2023/01/29 07:08:40;;;;;;;17.45;8.55;;;;;;;-1.57;82.13;100957.69;1660382;86;25468;-51
2023/01/29 07:11:10;;;;;;;14.73;8.00;;;;;;;-1.57;81.53;100935.66;1660273;86;27570;-52
2023/01/29 07:13:38;;;;;;;14.85;7.37;;;;;;;-1.57;82.00;100942.28;1660192;86;25822;-50
2023/01/29 07:16:07;;;;;;;18.75;8.30;;;;;;;-1.56;82.03;100925.36;1660382;86;25554;-51
2023/01/29 07:18:33;;;;;;;14.03;7.03;;;;;;;-1.56;81.67;100926.68;1660386;86;25610;-51
2023/01/29 07:21:05;;;;;;;15.68;8.08;;;;;;;-1.54;82.05;100915.34;1660328;86;25419;-50
2023/01/29 07:23:35;;;;;;;13.75;7.10;;;;;;;-1.55;81.69;100907.90;1660355;86;27455;-51
2023/01/29 07:26:05;;;;;;;16.60;8.40;;;;;;;-1.54;81.94;100915.34;1660274;86;27382;-50
2023/01/29 07:28:38;;;;;;;15.78;7.70;;;;;;;-1.52;81.96;100926.55;1660270;86;25448;-50
2023/01/29 07:31:11;;;;;;;14.10;7.83;;;;;;;-1.50;82.09;100933.77;1660392;86;25729;-50
2023/01/29 07:33:43;;;;;;;18.05;8.05;;;;;;;-1.46;82.36;100925.70;1660438;86;25417;-51
2023/01/29 07:36:14;;;;;;;15.23;8.00;;;;;;;-1.44;82.20;100931.60;1660434;86;27478;-52
2023/01/29 07:38:43;;;;;;;17.57;7.85;;;;;;;-1.40;82.05;100939.95;1660381;86;26121;-51
2023/01/29 07:41:13;;;;;;;17.70;8.93;;;;;;;-1.39;81.81;100950.88;1660376;86;25543;-51
2023/01/29 07:43:48;;;;;;;17.07;7.83;;;;;;;-1.38;81.62;100941.87;1660296;86;25563;-50
2023/01/29 07:46:14;;;;;;;14.58;8.10;;;;;;;-1.36;81.82;100947.28;1659427;86;25732;-49
2023/01/29 07:48:41;;;;;;;15.98;8.30;;;;;;;-1.33;81.77;100951.33;1658980;86;28291;-50
2023/01/29 07:51:07;;;;;;;14.98;8.18;;;;;;;-1.32;81.49;100948.99;1658826;86;25700;-51
2023/01/29 07:53:35;;;;;;;21.40;10.58;;;;;;;-1.30;81.71;100954.89;1659023;85;25669;-51
2023/01/29 07:56:07;;;;;;;13.88;7.45;;;;;;;-1.27;81.40;100951.02;1659088;86;25785;-50
2023/01/29 07:58:36;;;;;;;15.70;8.60;;;;;;;-1.26;81.22;100938.02;1660229;86;25344;-50
2023/01/29 08:01:09;;;;;;;16.73;8.40;;;;;;;-1.24;81.56;100935.47;1660671;86;27469;-52
2023/01/29 08:03:37;;;;;;;21.75;9.85;;;;;;;-1.21;81.41;100922.27;1660484;86;25651;-51
2023/01/29 08:06:10;;;;;;;17.50;9.73;;;;;;;-1.16;80.26;100929.91;1660549;86;25690;-52
2023/01/29 08:08:37;;;;;;;16.12;9.10;;;;;;;-1.13;81.06;100926.79;1660537;86;25555;-52
2023/01/29 08:11:06;;;;;;;17.57;9.28;;;;;;;-1.08;81.31;100922.17;1660594;86;25616;-50
2023/01/29 08:13:33;;;;;;;18.82;9.73;;;;;;;-1.06;80.52;100912.66;1660731;86;28297;-50
2023/01/29 08:16:06;;;;;;;15.48;7.45;;;;;;;-1.03;80.97;100928.97;1660491;86;25794;-51
2023/01/29 08:18:32;;;;;;;21.30;9.90;;;;;;;-1.02;80.36;100921.31;1660612;86;25649;-50
2023/01/29 08:21:02;;;;;;;18.35;9.45;;;;;;;-1.02;80.34;100913.84;1660551;86;25588;-50
2023/01/29 08:23:30;;;;;;;13.00;8.25;;;;;;;-1.03;79.28;100913.04;1660659;86;25485;-50
2023/01/29 08:25:56;;;;;;;15.78;9.20;;;;;;;-1.07;79.71;100914.52;1660464;86;28080;-51
2023/01/29 08:28:23;;;;;;;17.50;9.45;;;;;;;-1.06;79.83;100919.30;1659392;86;25530;-49
2023/01/29 08:30:49;;;;;;;17.57;8.68;;;;;;;-1.07;79.72;100918.50;1660426;86;25504;-48
2023/01/29 08:33:15;;;;;;;20.57;9.85;;;;;;;-1.06;79.88;100916.64;1660395;86;25586;-48
2023/01/29 08:35:41;;;;;;;21.15;11.83;;;;;;;-1.02;80.27;100916.50;1660598;86;25445;-48
2023/01/29 08:38:09;;;;;;;19.85;9.23;;;;;;;-0.99;80.39;100914.74;1660565;86;27595;-48
2023/01/29 08:40:36;;;;;;;14.50;9.45;;;;;;;-0.97;80.29;100912.19;1660494;86;25522;-49
2023/01/29 08:43:06;;;;;;;21.02;9.93;;;;;;;-0.95;79.71;100913.30;1660461;86;25590;-49
2023/01/29 08:45:36;;;;;;;18.77;11.85;;;;;;;-0.90;80.52;100916.11;1660097;86;25429;-49
2023/01/29 08:48:05;;;;;;;16.02;9.30;;;;;;;-0.88;79.93;100920.69;1659653;86;26000;-49
2023/01/29 08:50:33;;;;;;;15.13;9.75;;;;;;;-0.87;79.91;100917.02;1660424;86;27571;-48
2023/01/29 08:53:06;;;;;;;14.98;9.08;;;;;;;-0.84;80.31;100921.87;1660305;85;25610;-50
2023/01/29 08:55:36;;;;;;;18.57;8.93;;;;;;;-0.82;80.28;100914.52;1660280;86;25174;-49
2023/01/29 08:58:11;;;;;;;16.48;8.98;;;;;;;-0.80;80.04;100907.14;1660308;86;25518;-50
2023/01/29 09:00:39;;;;;;;17.77;10.50;;;;;;;-0.79;79.87;100905.28;1640791;86;25801;-52
2023/01/29 09:03:06;;;;;;;15.50;9.70;;;;;;;-0.79;79.54;100898.12;1659829;86;27803;-50
2023/01/29 09:05:40;;;;;;;17.37;9.70;;;;;;;-0.79;79.59;100895.46;1640595;86;25958;-49
2023/01/29 09:08:09;;;;;;;15.25;9.48;;;;;;;-0.77;79.02;100898.73;1660284;86;25554;-49
2023/01/29 09:10:36;;;;;;;14.30;7.97;;;;;;;-0.77;79.23;100890.77;1660413;86;26175;-49
2023/01/29 09:13:04;;;;;;;18.12;8.48;;;;;;;-0.79;78.76;100879.52;1660298;86;25565;-51
2023/01/29 09:15:30;;;;;;;19.42;10.03;;;;;;;-0.74;79.83;100882.05;1660203;86;27690;-49
2023/01/29 09:17:56;;;;;;;15.78;9.40;;;;;;;-0.70;79.45;100877.91;1660114;86;25438;-52
2023/01/29 09:20:24;;;;;;;19.23;11.28;;;;;;;-0.70;78.88;100874.73;1660158;86;25432;-49
2023/01/29 09:22:52;;;;;;;20.08;11.25;;;;;;;-0.69;79.03;100863.09;1660218;86;26346;-48
2023/01/29 09:25:18;;;;;;;15.13;8.13;;;;;;;-0.64;79.31;100867.22;1660250;86;25504;-48
2023/01/29 09:27:46;;;;;;;15.63;7.83;;;;;;;-0.60;78.47;100864.41;1660306;86;27644;-50
2023/01/29 09:30:16;;;;;;;15.65;8.25;;;;;;;-0.56;79.09;100862.16;1660098;86;25634;-48
2023/01/29 09:32:42;;;;;;;16.35;8.23;;;;;;;-0.50;79.42;100864.44;1660304;86;25589;-47
2023/01/29 09:35:10;;;;;;;28.90;26.30;;;;;;;-0.46;79.37;100865.11;1660282;86;25509;-48
2023/01/29 09:37:36;;;;;;;26.87;24.07;;;;;;;-0.41;79.33;100874.56;1660271;86;25655;-50
2023/01/29 09:40:07;;;;;;;30.55;27.45;;;;;;;-0.36;78.91;100870.41;1660175;86;29702;-49
2023/01/29 09:42:50;;;;;;;16.00;11.20;;;;;;;-0.37;78.83;100865.62;1660194;86;25644;-50
2023/01/29 09:45:25;;;;;;;27.42;24.52;;;;;;;-0.39;78.98;100853.87;1660245;86;25487;-49
2023/01/29 09:47:56;;;;;;;24.82;22.50;;;;;;;-0.39;79.20;100864.51;1663584;86;25478;-48
2023/01/29 09:50:45;;;;;;;33.78;30.50;;;;;;;-0.42;78.93;100852.98;1660260;86;25508;-49
2023/01/29 09:53:31;;;;;;;59.53;54.75;;;;;;;-0.43;78.93;100854.53;1660275;85;27530;-48
2023/01/29 09:56:06;;;;;;;55.05;50.35;;;;;;;-0.41;79.44;100847.98;1636836;87;25743;-51
2023/01/29 09:58:40;;;;;;;37.03;33.70;;;;;;;-0.41;79.50;100841.33;1635953;87;25810;-48
2023/01/29 10:01:42;;;;;;;47.73;43.85;;;;;;;-0.35;79.80;100836.16;1637083;87;25625;-49
2023/01/29 10:04:48;;;;;;;82.53;76.02;;;;;;;-0.28;80.09;100829.71;1637111;87;25664;-50
2023/01/29 10:07:44;;;;;;;72.05;66.35;;;;;;;-0.20;80.25;100821.44;1637049;87;29578;-49
2023/01/29 10:10:39;;;;;;;58.70;54.08;;;;;;;-0.14;79.58;100833.01;1636954;87;25636;-49
2023/01/29 10:13:47;;;;;;;66.77;61.58;;;;;;;-0.09;80.28;100822.52;1636965;87;25603;-49
2023/01/29 10:16:30;;;;;;;67.42;62.03;;;;;;;-0.06;79.72;100817.27;1635588;87;25497;-48
2023/01/29 10:19:28;;;;;;;85.67;78.92;;;;;;;-0.05;80.27;100813.06;1583246;90;25824;-50
2023/01/29 10:22:12;;;;;;;86.55;79.87;;;;;;;0.01;80.49;100816.66;1583797;90;27353;-46
2023/01/29 10:24:59;;;;;;;87.12;80.28;;;;;;;0.04;80.25;100812.75;1562057;90;25616;-48
2023/01/29 10:27:33;;;;;;;86.47;79.62;;;;;;;0.02;80.08;100801.00;1582930;90;25716;-46
2023/01/29 10:30:05;;;;;;;89.83;82.45;;;;;;;0.01;79.76;100805.22;1583900;90;25776;-48
2023/01/29 10:32:35;;;;;;;87.00;80.32;;;;;;;-0.03;80.17;100798.21;1583978;90;25759;-47
2023/01/29 10:35:08;;;;;;;87.35;80.57;;;;;;;-0.03;80.73;100807.52;1583943;90;28058;-48
2023/01/29 10:37:40;;;;;;;87.47;80.85;;;;;;;0.02;80.91;100812.98;1557569;92;25710;-46
2023/01/29 10:40:24;;;;;;;88.12;80.95;;;;;;;0.08;81.24;100799.28;1558913;92;25672;-46
2023/01/29 10:43:02;;;;;;;87.75;81.05;;;;;;;0.10;80.80;100803.84;1559285;92;25874;-47
2023/01/29 10:45:42;;;;;;;86.60;79.70;;;;;;;0.07;80.50;100798.97;1558520;92;25462;-45
2023/01/29 10:48:34;;;;;;;87.72;80.87;;;;;;;0.06;80.69;100812.00;1559404;92;27899;-45
2023/01/29 10:51:10;;;;;;;86.80;80.00;;;;;;;0.02;80.58;100805.49;1559375;92;25728;-49
2023/01/29 10:53:54;;;;;;;87.20;80.65;;;;;;;-0.05;80.81;100798.44;1559813;92;25790;-47
2023/01/29 10:56:47;;;;;;;88.45;81.37;;;;;;;-0.07;81.15;100805.84;1556076;90;25597;-45
2023/01/29 10:59:31;;;;;;;87.97;81.05;;;;;;;-0.10;81.37;100797.47;1581942;90;25611;-48
2023/01/29 11:02:02;;;;;;;88.10;81.30;;;;;;;-0.10;81.78;100804.11;1581446;90;28163;-44
2023/01/29 11:04:31;;;;;;;88.45;81.40;;;;;;;-0.15;81.81;100791.52;1581822;90;25640;-47
2023/01/29 11:06:59;;;;;;;;;;;;;;;-0.13;82.09;100790.77;1584249;90;25565;-45
2023/01/29 11:09:40;;;;;;;88.50;81.40;;;;;;;-0.15;82.09;100786.70;1581791;90;25558;-46
2023/01/29 11:12:16;;;;;;;87.40;80.60;;;;;;;-0.17;82.13;100780.80;1581220;90;25273;-47
2023/01/29 11:15:03;;;;;;;89.22;81.65;;;;;;;-0.18;82.40;100773.88;1609392;86;27919;-46
2023/01/29 11:17:30;;;;;;;87.33;80.30;;;;;;;-0.21;82.42;100763.16;1598082;89;25578;-46
2023/01/29 11:19:56;;;;;;;89.83;82.70;;;;;;;-0.25;82.30;100764.12;1565890;91;25659;-44
2023/01/29 11:22:29;;;;;;;88.70;81.80;;;;;;;-0.30;82.35;100760.00;1540722;93;25539;-45
2023/01/29 11:25:21;;;;;;;89.45;82.30;;;;;;;-0.33;82.61;100760.45;1548944;92;25626;-46
2023/01/29 11:27:53;;;;;;;91.42;83.70;;;;;;;-0.33;82.89;100758.32;1568583;91;26992;-46
2023/01/29 11:30:33;;;;;;;88.78;81.72;;;;;;;-0.38;83.24;100753.14;1568525;91;25530;-47
2023/01/29 11:33:23;;;;;;;88.45;81.72;;;;;;;-0.43;83.07;100738.91;1568562;91;25675;-46
2023/01/29 11:35:56;;;;;;;71.87;65.45;;;;;;;-0.44;83.41;100738.11;1568490;91;25609;-45
2023/01/29 11:38:29;;;;;;;32.40;16.95;;;;;;;-0.45;83.85;100741.79;1540318;91;25453;-44
2023/01/29 11:41:21;;;;;;;28.55;11.55;;;;;;;-0.44;83.76;100722.16;1548846;92;27471;-44
2023/01/29 11:43:48;;;;;;;17.80;9.63;;;;;;;-0.41;84.03;100709.76;1568438;91;25527;-45
2023/01/29 11:46:17;;;;;;;18.30;8.18;;;;;;;-0.35;84.16;100702.72;1568490;91;25610;-45
2023/01/29 11:48:50;;;;;;;16.17;8.40;;;;;;;-0.30;84.10;100709.49;1542171;93;25718;-46
2023/01/29 11:51:29;;;;;;;17.00;8.65;;;;;;;-0.30;83.96;100692.74;1540755;93;25700;-46
2023/01/29 11:54:01;;;;;;;11.83;6.87;;;;;;;-0.31;83.95;100697.75;1591375;87;27371;-48
2023/01/29 11:56:37;;;;;;;18.40;8.78;;;;;;;-0.31;83.87;100689.78;1629583;88;25836;-48
2023/01/29 11:59:07;;;;;;;20.48;9.65;;;;;;;-0.31;83.82;100689.78;1637572;87;25570;-46
2023/01/29 12:01:39;;;;;;;;;;;;;;;-0.31;83.76;100691.11;1606822;89;25622;-47
2023/01/29 12:04:23;;;;;;;20.00;10.53;;;;;;;-0.33;83.86;100690.00;1630388;87;25489;-49
2023/01/29 12:06:52;;;;;;;19.12;10.50;;;;;;;-0.36;83.90;100677.16;1630389;87;27405;-44
2023/01/29 12:09:26;;;;;;;18.45;10.25;;;;;;;-0.39;83.95;100670.47;1630388;88;25482;-45
2023/01/29 12:11:54;;;;;;;20.35;9.50;;;;;;;-0.41;83.92;100681.85;1630428;88;25651;-45
2023/01/29 12:14:35;;;;;;;20.43;11.55;;;;;;;-0.46;84.04;100667.59;1630436;88;26285;-45
2023/01/29 12:17:13;;;;;;;23.10;10.65;;;;;;;-0.47;84.23;100669.98;1608797;88;25511;-44
2023/01/29 12:19:57;;;;;;;25.35;12.35;;;;;;;-0.50;84.43;100657.94;1630478;88;27357;-46
2023/01/29 12:22:56;;;;;;;22.13;11.48;;;;;;;-0.53;84.46;100668.22;1629976;88;25412;-45
2023/01/29 12:25:39;;;;;;;25.17;11.65;;;;;;;-0.56;84.74;100656.20;1630525;88;32496;-44